Time;durP1;ratioP1;P1;durP2;ratioP2;P2;SDS_P1;SDS_P2;PMS_P1;PMS_P2;Temp;Humidity;BMP_temperature;BMP_pressure;BME280_temperature;BME280_humidity;BME280_pressure;Samples;Min_cycle;Max_cycle;Signal;HPM_P1;HPM_P2
2023/04/08 00:01:05;;;;;;;10.55;7.50;;;6.20;99.90;;;;;;6045443;23;92487;-75
2023/04/08 00:03:32;;;;;;;9.65;7.20;;;6.10;99.90;;;;;;6095197;23;92878;-75
2023/04/08 00:06:01;;;;;;;12.40;7.88;;;6.10;99.90;;;;;;6069297;23;93323;-76
2023/04/08 00:08:28;;;;;;;11.35;7.50;;;6.10;99.90;;;;;;6095484;23;92435;-76
2023/04/08 00:10:55;;;;;;;9.82;7.85;;;6.00;99.90;;;;;;6069426;23;91739;-75
2023/04/08 00:13:22;;;;;;;11.13;7.63;;;6.00;99.90;;;;;;6069146;23;95770;-75
2023/04/08 00:15:49;;;;;;;9.13;7.38;;;6.00;99.90;;;;;;6044791;23;95443;-76
2023/04/08 00:18:16;;;;;;;12.70;7.78;;;6.00;99.90;;;;;;6067941;23;94813;-75
2023/04/08 00:20:43;;;;;;;9.93;7.28;;;5.90;99.90;;;;;;6095751;23;92455;-75
2023/04/08 00:23:10;;;;;;;10.60;8.15;;;5.90;99.90;;;;;;6044607;23;95616;-75
2023/04/08 00:25:37;;;;;;;9.30;7.60;;;5.90;99.90;;;;;;6069430;23;93133;-75
2023/04/08 00:28:04;;;;;;;9.05;7.32;;;5.80;99.90;;;;;;6095269;23;92343;-75
2023/04/08 00:30:31;;;;;;;9.75;8.25;;;5.80;99.90;;;;;;6069163;23;92426;-75
2023/04/08 00:32:58;;;;;;;11.25;8.60;;;5.70;99.90;;;;;;6069161;23;93133;-75
2023/04/08 00:35:25;;;;;;;11.95;8.93;;;5.70;99.90;;;;;;6069221;23;95677;-75
2023/04/08 00:37:52;;;;;;;10.13;8.02;;;5.70;99.90;;;;;;6069066;23;93063;-75
2023/04/08 00:40:19;;;;;;;13.20;9.30;;;5.70;99.90;;;;;;6069451;23;92326;-75
2023/04/08 00:42:46;;;;;;;11.35;8.90;;;5.60;99.90;;;;;;6067121;23;97994;-75
2023/04/08 00:45:14;;;;;;;9.68;7.93;;;5.50;99.90;;;;;;6094685;23;94254;-75
2023/04/08 00:47:41;;;;;;;11.77;9.27;;;5.50;99.90;;;;;;6095261;23;92585;-75
2023/04/08 00:50:11;;;;;;;11.90;8.75;;;5.50;99.90;;;;;;6068650;23;92323;-75
2023/04/08 00:52:38;;;;;;;15.27;10.20;;;5.40;99.90;;;;;;6095003;23;93171;-75
2023/04/08 00:55:06;;;;;;;12.25;9.52;;;5.40;99.90;;;;;;6067663;23;95597;-75
2023/04/08 00:57:33;;;;;;;13.23;9.57;;;5.40;99.90;;;;;;6068988;23;92466;-75
2023/04/08 01:00:00;;;;;;;12.52;9.68;;;5.30;99.90;;;;;;6044993;23;91714;-75
2023/04/08 01:02:35;;;;;;;13.00;9.80;;;5.30;99.90;;;;;;6095072;23;93471;-75
2023/04/08 01:05:05;;;;;;;12.35;9.65;;;5.30;99.90;;;;;;6068586;23;95749;-75
2023/04/08 01:07:39;;;;;;;13.73;10.10;;;5.30;99.90;;;;;;6067637;23;94882;-75
2023/04/08 01:10:15;;;;;;;;;;;5.20;99.90;;;;;;6068514;23;92470;-75
2023/04/08 01:13:04;;;;;;;12.55;9.57;;;5.10;99.90;;;;;;6096287;23;92851;-75
2023/04/08 01:15:34;;;;;;;14.43;9.95;;;5.10;99.90;;;;;;6045329;23;95641;-75
2023/04/08 01:18:06;;;;;;;12.20;10.38;;;5.00;99.90;;;;;;6095901;23;92411;-75
2023/04/08 01:20:33;;;;;;;14.15;10.98;;;5.00;99.90;;;;;;6069728;23;92348;-75
2023/04/08 01:23:00;;;;;;;13.80;10.65;;;5.00;99.90;;;;;;6095420;23;93090;-75
2023/04/08 01:25:33;;;;;;;14.35;11.32;;;4.90;99.90;;;;;;6096124;23;93308;-75
2023/04/08 01:28:04;;;;;;;18.55;12.88;;;4.90;99.90;;;;;;6069275;23;92459;-75
2023/04/08 01:30:33;;;;;;;15.18;10.80;;;4.90;99.90;;;;;;6045510;23;92390;-75
2023/04/08 01:33:02;;;;;;;15.25;11.95;;;4.90;99.90;;;;;;6043350;23;98283;-75
2023/04/08 01:35:31;;;;;;;15.02;11.57;;;4.80;99.90;;;;;;6068834;23;97974;-75
2023/04/08 01:37:59;;;;;;;16.75;13.25;;;4.80;99.90;;;;;;6069003;23;92315;-75
2023/04/08 01:40:26;;;;;;;14.02;10.70;;;4.80;99.90;;;;;;6044925;23;92483;-75
2023/04/08 01:42:55;;;;;;;15.77;12.05;;;4.80;99.90;;;;;;6045040;23;95528;-75
2023/04/08 01:45:23;;;;;;;17.65;11.95;;;4.80;99.90;;;;;;6095510;23;93894;-75
2023/04/08 01:47:51;;;;;;;16.10;11.82;;;4.80;99.90;;;;;;6069131;23;92448;-75
2023/04/08 01:50:19;;;;;;;16.15;12.43;;;4.80;99.90;;;;;;6069912;23;91665;-75
2023/04/08 01:52:49;;;;;;;16.50;11.82;;;4.70;99.90;;;;;;6044918;23;94731;-75
2023/04/08 01:55:16;;;;;;;14.82;11.05;;;4.70;99.90;;;;;;6044502;23;94010;-75
2023/04/08 01:57:52;;;;;;;18.08;12.57;;;4.70;99.90;;;;;;6043786;23;94753;-75
2023/04/08 02:00:24;;;;;;;17.45;12.23;;;4.70;99.90;;;;;;6045040;23;92434;-75
2023/04/08 02:02:53;;;;;;;20.38;12.55;;;4.70;99.90;;;;;;6069219;23;95811;-75
2023/04/08 02:05:20;;;;;;;22.55;13.98;;;4.70;99.90;;;;;;6044883;23;95565;-75
2023/04/08 02:07:48;;;;;;;18.92;13.95;;;4.60;99.90;;;;;;6044803;23;92368;-75
2023/04/08 02:10:15;;;;;;;16.17;11.55;;;4.60;99.90;;;;;;6068901;23;92527;-75
2023/04/08 02:12:43;;;;;;;18.60;12.30;;;4.60;99.90;;;;;;6095267;23;93143;-75
2023/04/08 02:15:12;;;;;;;14.95;12.82;;;4.60;99.90;;;;;;6069078;23;95755;-75
2023/04/08 02:17:45;;;;;;;17.05;13.25;;;4.60;99.90;;;;;;6068949;23;92491;-75
2023/04/08 02:20:45;;;;;;;16.95;11.85;;;4.60;99.90;;;;;;6094814;23;92331;-75
2023/04/08 02:23:19;;;;;;;18.80;12.27;;;4.50;99.90;;;;;;6089217;23;95633;-75
2023/04/08 02:25:47;;;;;;;18.85;13.25;;;4.50;99.90;;;;;;6068727;23;98033;-75
2023/04/08 02:28:17;;;;;;;17.88;12.35;;;4.40;99.90;;;;;;6068683;23;92428;-75
2023/04/08 02:30:49;;;;;;;19.17;13.48;;;4.40;99.90;;;;;;6045024;23;92485;-75
2023/04/08 02:33:20;;;;;;;20.02;13.07;;;4.40;99.90;;;;;;6095042;23;92376;-75
2023/04/08 02:35:53;;;;;;;17.73;13.07;;;4.40;99.90;;;;;;6045472;23;95234;-75
2023/04/08 02:38:22;;;;;;;18.50;12.48;;;4.40;99.90;;;;;;6069047;23;92463;-75
2023/04/08 02:40:50;;;;;;;22.73;13.85;;;4.40;99.90;;;;;;6069524;23;91701;-75
2023/04/08 02:43:17;;;;;;;21.73;13.80;;;4.40;99.90;;;;;;6094893;23;93120;-75
2023/04/08 02:45:44;;;;;;;18.85;13.60;;;4.40;99.90;;;;;;6094987;23;92984;-75
2023/04/08 02:48:11;;;;;;;22.42;15.23;;;4.40;99.90;;;;;;6043093;23;94853;-75
2023/04/08 02:50:39;;;;;;;20.52;14.27;;;4.30;99.90;;;;;;6069255;23;93085;-75
2023/04/08 02:53:07;;;;;;;23.58;15.00;;;4.40;99.90;;;;;;6044630;23;95497;-75
2023/04/08 02:55:35;;;;;;;24.90;15.18;;;4.30;99.90;;;;;;6068810;23;95673;-75
2023/04/08 02:58:02;;;;;;;20.58;13.82;;;4.30;99.90;;;;;;6095369;23;92963;-75
2023/04/08 03:00:29;;;;;;;22.20;14.57;;;4.40;99.90;;;;;;6095065;23;92368;-75
2023/04/08 03:02:56;;;;;;;20.55;14.38;;;4.30;99.90;;;;;;6044539;23;97270;-75
2023/04/08 03:05:25;;;;;;;20.90;14.32;;;4.30;99.90;;;;;;6044903;23;95732;-75
2023/04/08 03:07:52;;;;;;;21.90;15.07;;;4.30;99.90;;;;;;6068618;23;92449;-75
2023/04/08 03:10:19;;;;;;;18.85;14.23;;;4.30;99.90;;;;;;6044506;23;92618;-75
2023/04/08 03:12:46;;;;;;;20.52;14.98;;;4.30;99.90;;;;;;6042960;23;98401;-75
2023/04/08 03:15:13;;;;;;;23.08;15.73;;;4.30;99.90;;;;;;6068828;23;95451;-75
2023/04/08 03:17:40;;;;;;;25.20;16.20;;;4.30;99.90;;;;;;6069456;23;92512;-75
2023/04/08 03:20:07;;;;;;;23.15;15.23;;;4.30;99.90;;;;;;6068972;23;92580;-75
2023/04/08 03:22:35;;;;;;;25.48;15.23;;;4.30;99.90;;;;;;6069149;23;96444;-75
2023/04/08 03:25:14;;;;;;;25.98;15.88;;;4.30;99.90;;;;;;6094932;23;93187;-75
2023/04/08 03:27:41;;;;;;;23.88;15.40;;;4.20;99.90;;;;;;6095005;23;92376;-75
2023/04/08 03:30:08;;;;;;;28.48;16.10;;;4.20;99.90;;;;;;6069271;23;91745;-75
2023/04/08 03:32:35;;;;;;;25.75;16.83;;;4.20;99.90;;;;;;6068506;23;95708;-75
2023/04/08 03:35:03;;;;;;;25.60;15.75;;;4.30;99.90;;;;;;6069077;23;92947;-75
2023/04/08 03:37:31;;;;;;;26.40;15.98;;;4.30;99.90;;;;;;6067014;23;94815;-75
2023/04/08 03:39:58;;;;;;;25.90;16.33;;;4.20;99.90;;;;;;6044546;23;92545;-75
2023/04/08 03:42:24;;;;;;;25.75;14.80;;;4.30;99.90;;;;;;6094703;23;92926;-75
2023/04/08 03:44:51;;;;;;;25.50;15.23;;;4.20;99.90;;;;;;6094951;23;93100;-75
2023/04/08 03:47:18;;;;;;;21.65;14.23;;;4.20;99.90;;;;;;6068911;23;92368;-75
2023/04/08 03:49:45;;;;;;;24.60;15.18;;;4.20;99.90;;;;;;6044584;23;92501;-75
2023/04/08 03:52:12;;;;;;;27.00;15.23;;;4.20;99.90;;;;;;6094463;23;105349;-75
2023/04/08 03:54:39;;;;;;;22.50;15.40;;;4.20;99.90;;;;;;6069139;23;92876;-75
2023/04/08 03:57:06;;;;;;;24.08;15.75;;;4.20;99.90;;;;;;6044484;23;92406;-75
2023/04/08 03:59:35;;;;;;;25.38;15.95;;;4.20;99.90;;;;;;6094807;23;92340;-75
2023/04/08 04:02:02;;;;;;;22.98;14.98;;;4.20;99.90;;;;;;6067316;23;95935;-75
2023/04/08 04:04:29;;;;;;;27.80;16.05;;;4.30;99.90;;;;;;6068499;23;95304;-75
2023/04/08 04:06:56;;;;;;;26.35;15.80;;;4.30;99.90;;;;;;6068980;23;92430;-75
2023/04/08 04:09:23;;;;;;;26.65;16.10;;;4.30;99.90;;;;;;6094770;23;92675;-75
2023/04/08 04:11:50;;;;;;;25.75;15.27;;;4.30;99.90;;;;;;6068865;23;93109;-75
2023/04/08 04:14:17;;;;;;;27.70;17.02;;;4.40;99.90;;;;;;6094388;23;93049;-75
2023/04/08 04:16:44;;;;;;;24.17;15.45;;;4.40;99.90;;;;;;6094866;23;92400;-75
2023/04/08 04:19:10;;;;;;;24.95;15.85;;;4.40;99.90;;;;;;6095039;23;92268;-75
2023/04/08 04:21:37;;;;;;;25.63;15.85;;;4.40;99.90;;;;;;6094378;23;93152;-75
2023/04/08 04:24:04;;;;;;;26.75;15.52;;;4.40;99.90;;;;;;6044677;23;92910;-75
2023/04/08 04:26:31;;;;;;;25.92;15.90;;;4.50;99.90;;;;;;6092757;23;97236;-75
2023/04/08 04:28:58;;;;;;;24.40;15.00;;;4.50;99.90;;;;;;6068406;23;92901;-75
2023/04/08 04:31:25;;;;;;;24.60;16.92;;;4.50;99.90;;;;;;6067969;23;95583;-75
2023/04/08 04:33:53;;;;;;;25.15;16.38;;;4.60;99.90;;;;;;6068511;23;92845;-75
2023/04/08 04:36:20;;;;;;;24.58;15.90;;;4.60;99.90;;;;;;6094513;23;92393;-75
2023/04/08 04:38:48;;;;;;;22.52;14.88;;;4.60;99.90;;;;;;6068790;23;92992;-75
2023/04/08 04:41:16;;;;;;;24.38;16.55;;;4.70;99.90;;;;;;6094438;23;96375;-75
2023/04/08 04:43:43;;;;;;;27.60;15.98;;;4.70;99.90;;;;;;6094670;23;93135;-75
2023/04/08 04:46:10;;;;;;;26.33;14.95;;;4.80;99.90;;;;;;6094603;23;92566;-75
2023/04/08 04:48:37;;;;;;;24.92;15.57;;;4.80;99.90;;;;;;6068409;23;92465;-75
2023/04/08 04:51:06;;;;;;;23.40;15.80;;;4.80;99.90;;;;;;6067787;23;98200;-75
2023/04/08 04:53:33;;;;;;;23.98;16.13;;;4.80;99.90;;;;;;6069063;23;97996;-75
2023/04/08 04:56:02;;;;;;;24.88;16.48;;;4.90;99.90;;;;;;6045590;23;92516;-75
2023/04/08 04:58:29;;;;;;;25.55;16.23;;;4.90;99.90;;;;;;6095645;23;92410;-75
2023/04/08 05:00:57;;;;;;;24.73;16.60;;;5.00;99.90;;;;;;6095555;23;93170;-75
2023/04/08 05:03:24;;;;;;;27.98;16.98;;;5.00;99.90;;;;;;6095298;23;93068;-75
2023/04/08 05:05:52;;;;;;;30.27;18.02;;;5.10;99.90;;;;;;6095759;23;92396;-75
2023/04/08 05:08:20;;;;;;;26.90;16.50;;;5.10;99.90;;;;;;6070323;23;91689;-75
2023/04/08 05:10:49;;;;;;;24.80;17.30;;;5.20;99.90;;;;;;6069006;23;93989;-75
2023/04/08 05:13:16;;;;;;;30.35;19.83;;;5.20;99.90;;;;;;6095520;23;93416;-75
2023/04/08 05:15:46;;;;;;;28.77;18.38;;;5.30;99.90;;;;;;6093835;23;94809;-75
2023/04/08 05:18:13;;;;;;;28.35;17.67;;;5.30;99.90;;;;;;6045117;23;92998;-75
2023/04/08 05:20:40;;;;;;;27.10;18.15;;;5.40;99.90;;;;;;6094869;23;96732;-75
2023/04/08 05:23:07;;;;;;;27.55;18.55;;;5.40;99.90;;;;;;6095427;23;94675;-75
2023/04/08 05:25:35;;;;;;;29.05;18.67;;;5.50;99.90;;;;;;6095389;23;92392;-75
2023/04/08 05:28:02;;;;;;;25.30;16.77;;;5.50;99.90;;;;;;6069943;23;92892;-75
2023/04/08 05:30:29;;;;;;;28.05;17.98;;;5.60;99.90;;;;;;6095341;23;93249;-75
2023/04/08 05:32:56;;;;;;;30.52;16.80;;;5.60;99.90;;;;;;6045456;23;96074;-75
2023/04/08 05:35:25;;;;;;;28.25;17.42;;;5.70;99.90;;;;;;6070202;23;92378;-75
2023/04/08 05:37:52;;;;;;;23.27;16.55;;;5.70;99.90;;;;;;6095643;23;92414;-75
2023/04/08 05:40:20;;;;;;;23.30;16.67;;;5.70;99.90;;;;;;6067552;23;98033;-75
2023/04/08 05:42:47;;;;;;;31.02;18.40;;;5.70;99.90;;;;;;6095058;23;95361;-75
2023/04/08 05:45:14;;;;;;;28.38;17.88;;;5.70;99.90;;;;;;6095633;23;92411;-75
2023/04/08 05:47:42;;;;;;;26.45;16.58;;;5.70;99.90;;;;;;6044852;23;92521;-75
2023/04/08 05:50:10;;;;;;;27.80;17.13;;;5.70;99.90;;;;;;6095536;23;96061;-75
2023/04/08 05:52:41;;;;;;;26.73;16.30;;;5.80;99.90;;;;;;6069384;23;93145;-75
2023/04/08 05:55:08;;;;;;;25.95;16.10;;;5.80;99.90;;;;;;6069642;23;92387;-75
2023/04/08 05:57:36;;;;;;;23.00;15.07;;;5.80;99.90;;;;;;6045122;23;91690;-75
2023/04/08 06:00:07;;;;;;;23.60;15.40;;;5.80;99.90;;;;;;6095494;23;93295;-75
2023/04/08 06:02:36;;;;;;;23.88;16.35;;;5.80;99.90;;;;;;6094776;23;92995;-75
2023/04/08 06:05:03;;;;;;;21.75;15.60;;;5.90;99.90;;;;;;6043964;23;95328;-75
2023/04/08 06:07:31;;;;;;;20.38;14.48;;;6.00;99.90;;;;;;6095532;23;92407;-75
2023/04/08 06:09:59;;;;;;;22.42;15.65;;;6.40;99.90;;;;;;6095202;23;93247;-75
2023/04/08 06:12:26;;;;;;;23.48;16.30;;;6.70;99.90;;;;;;6069410;23;93208;-75
2023/04/08 06:14:55;;;;;;;19.73;13.55;;;6.90;99.90;;;;;;6069450;23;92553;-75
2023/04/08 06:17:22;;;;;;;20.48;14.70;;;7.10;99.90;;;;;;6095692;23;92547;-75
2023/04/08 06:19:49;;;;;;;19.23;14.93;;;7.30;99.90;;;;;;6068632;23;95005;-75
2023/04/08 06:22:17;;;;;;;19.33;13.68;;;7.40;99.90;;;;;;6045474;23;95537;-75
2023/04/08 06:24:45;;;;;;;16.23;12.65;;;7.60;99.90;;;;;;6069307;23;92466;-75
2023/04/08 06:27:13;;;;;;;16.48;12.70;;;8.00;99.90;;;;;;6070006;23;92467;-75
2023/04/08 06:29:40;;;;;;;16.35;12.30;;;8.40;99.90;;;;;;6043523;23;95353;-75
2023/04/08 06:32:09;;;;;;;13.80;11.82;;;8.70;99.90;;;;;;6068695;23;99334;-75
2023/04/08 06:34:36;;;;;;;14.93;12.02;;;9.30;99.90;;;;;;6069227;23;92500;-75
2023/04/08 06:37:05;;;;;;;13.25;10.77;;;9.70;99.90;;;;;;6069063;23;92376;-75
2023/04/08 06:39:32;;;;;;;13.32;11.15;;;10.10;99.90;;;;;;6095159;23;93104;-75
2023/04/08 06:41:59;;;;;;;14.63;12.15;;;10.50;99.90;;;;;;6068950;23;92824;-75
2023/04/08 06:44:44;;;;;;;15.27;11.90;;;10.60;99.90;;;;;;6048325;23;92508;-75
2023/04/08 06:47:11;;;;;;;14.27;12.35;;;10.60;99.90;;;;;;6095907;23;91959;-75
2023/04/08 06:49:38;;;;;;;14.02;12.48;;;10.70;99.90;;;;;;6094749;23;93128;-75
2023/04/08 06:52:05;;;;;;;12.30;10.30;;;10.80;99.90;;;;;;6068589;23;105815;-75
2023/04/08 06:54:32;;;;;;;13.73;11.98;;;10.80;99.90;;;;;;6093784;23;94860;-75
2023/04/08 06:56:59;;;;;;;12.50;11.20;;;10.90;99.90;;;;;;6069178;23;92518;-75
2023/04/08 06:59:26;;;;;;;15.32;12.13;;;11.10;99.90;;;;;;6044680;23;93458;-75
2023/04/08 07:01:53;;;;;;;12.25;11.05;;;11.10;99.90;;;;;;6067892;23;93059;-75
2023/04/08 07:04:21;;;;;;;13.40;11.98;;;11.40;99.90;;;;;;6069438;23;92434;-75
2023/04/08 07:06:48;;;;;;;12.48;11.18;;;11.50;99.90;;;;;;6095117;23;92418;-75
2023/04/08 07:09:15;;;;;;;12.23;11.05;;;11.70;99.90;;;;;;6068245;23;95672;-76
2023/04/08 07:11:42;;;;;;;12.20;10.73;;;11.80;99.90;;;;;;6045324;23;93112;-75
2023/04/08 07:14:09;;;;;;;12.15;10.82;;;11.80;99.90;;;;;;6068559;23;92341;-75
2023/04/08 07:16:36;;;;;;;11.05;9.95;;;12.00;99.90;;;;;;6068904;23;92405;-75
2023/04/08 07:19:03;;;;;;;11.68;10.48;;;11.90;99.90;;;;;;6093389;23;95662;-75
2023/04/08 07:21:30;;;;;;;13.20;11.82;;;11.80;99.90;;;;;;6044692;23;97807;-75
2023/04/08 07:23:57;;;;;;;13.07;11.73;;;11.60;99.90;;;;;;6069168;23;92626;-75
2023/04/08 07:26:24;;;;;;;14.30;12.82;;;11.40;99.90;;;;;;6095410;23;92376;-75
2023/04/08 07:28:51;;;;;;;15.75;12.68;;;11.30;99.90;;;;;;6068423;23;94524;-75
2023/04/08 07:31:19;;;;;;;15.48;13.88;;;11.10;99.90;;;;;;6068540;23;95699;-75
2023/04/08 07:33:46;;;;;;;16.02;14.13;;;10.80;99.90;;;;;;6094788;23;92467;-75
2023/04/08 07:36:14;;;;;;;18.80;14.25;;;10.70;99.90;;;;;;6095551;23;91744;-75
2023/04/08 07:38:41;;;;;;;17.67;14.25;;;10.60;99.90;;;;;;6044279;23;95761;-75
2023/04/08 07:41:08;;;;;;;17.02;12.98;;;10.70;99.90;;;;;;6069235;23;92987;-75
2023/04/08 07:43:35;;;;;;;17.40;14.57;;;10.50;99.90;;;;;;6093608;23;94830;-75
2023/04/08 07:46:04;;;;;;;14.05;12.65;;;10.40;99.90;;;;;;6068410;23;92520;-75
2023/04/08 07:48:31;;;;;;;15.90;13.82;;;10.40;99.90;;;;;;6068984;23;93204;-75
2023/04/08 07:51:03;;;;;;;18.88;15.57;;;10.40;99.90;;;;;;6094670;23;93028;-75
2023/04/08 07:53:35;;;;;;;15.55;13.88;;;10.50;99.90;;;;;;6068866;23;92610;-76
2023/04/08 07:56:05;;;;;;;18.42;13.45;;;10.60;99.90;;;;;;6044512;23;92856;-75
2023/04/08 07:58:32;;;;;;;16.25;13.45;;;10.50;99.90;;;;;;6044222;23;96677;-75
2023/04/08 08:00:59;;;;;;;16.08;13.90;;;10.50;99.90;;;;;;6068426;23;101546;-75
2023/04/08 08:03:26;;;;;;;13.25;11.70;;;10.50;99.90;;;;;;6044552;23;92460;-75
2023/04/08 08:05:53;;;;;;;17.25;13.13;;;10.30;99.90;;;;;;6068724;23;92419;-75
2023/04/08 08:08:20;;;;;;;16.50;14.45;;;10.20;99.90;;;;;;6093139;23;95585;-75
2023/04/08 08:10:47;;;;;;;17.65;14.57;;;10.00;99.90;;;;;;6094100;23;97127;-75
2023/04/08 08:13:16;;;;;;;17.35;13.82;;;9.70;99.90;;;;;;6094844;23;92394;-75
2023/04/08 08:15:43;;;;;;;16.38;13.43;;;9.60;99.90;;;;;;6094796;23;92350;-75
2023/04/08 08:18:10;;;;;;;19.10;15.15;;;9.50;99.90;;;;;;6020611;23;93230;-75
2023/04/08 08:20:37;;;;;;;16.98;13.80;;;9.50;99.90;;;;;;6044429;23;92939;-75
2023/04/08 08:23:04;;;;;;;17.33;14.30;;;9.50;99.90;;;;;;6094656;23;92421;-75
2023/04/08 08:25:31;;;;;;;16.08;12.77;;;9.50;99.90;;;;;;6068960;23;91621;-75
2023/04/08 08:27:58;;;;;;;18.02;13.27;;;9.50;99.90;;;;;;6094275;23;93109;-75
2023/04/08 08:30:25;;;;;;;16.95;13.10;;;9.50;99.90;;;;;;6094362;23;92874;-75
2023/04/08 08:32:52;;;;;;;15.18;12.10;;;9.50;99.90;;;;;;6042535;23;94797;-75
2023/04/08 08:35:19;;;;;;;17.77;12.82;;;9.50;99.90;;;;;;6068509;23;93207;-75
2023/04/08 08:37:46;;;;;;;17.00;12.85;;;9.40;99.90;;;;;;6094499;23;92429;-75
2023/04/08 08:40:13;;;;;;;14.90;11.07;;;9.40;99.90;;;;;;6094170;23;93052;-75
2023/04/08 08:42:40;;;;;;;17.25;12.82;;;9.40;99.90;;;;;;6094635;23;92704;-75
2023/04/08 08:45:08;;;;;;;14.60;11.75;;;9.40;99.90;;;;;;6068470;23;92919;-75
2023/04/08 08:47:35;;;;;;;14.30;11.18;;;9.50;99.90;;;;;;6068475;23;93483;-75
2023/04/08 08:50:02;;;;;;;15.25;12.15;;;9.60;99.90;;;;;;6094378;23;93132;-75
2023/04/08 08:52:29;;;;;;;16.50;12.27;;;9.50;99.90;;;;;;6094499;23;92363;-75
2023/04/08 08:55:00;;;;;;;14.23;10.93;;;9.60;99.90;;;;;;6094331;23;92481;-75
2023/04/08 08:57:27;;;;;;;15.88;12.85;;;9.70;99.90;;;;;;6066434;23;98115;-75
2023/04/08 08:59:54;;;;;;;16.48;13.55;;;9.80;99.90;;;;;;6093884;23;95372;-75
2023/04/08 09:02:30;;;;;;;16.15;12.75;;;9.90;99.90;;;;;;6094337;23;92519;-75
2023/04/08 09:05:02;;;;;;;16.25;12.93;;;10.10;99.90;;;;;;6094203;23;92373;-75
2023/04/08 09:07:34;;;;;;;16.95;12.95;;;10.30;99.90;;;;;;6094238;23;94046;-75
2023/04/08 09:10:01;;;;;;;15.55;10.63;;;10.50;99.90;;;;;;6093829;23;93049;-75
2023/04/08 09:12:30;;;;;;;15.95;12.65;;;10.50;99.90;;;;;;6094165;23;92388;-75
2023/04/08 09:15:08;;;;;;;15.77;12.30;;;10.50;99.90;;;;;;6068203;23;91830;-76
2023/04/08 09:17:37;;;;;;;17.35;12.48;;;10.60;99.90;;;;;;6094253;23;93227;-75
2023/04/08 09:20:10;;;;;;;16.13;12.00;;;10.60;99.90;;;;;;6093421;23;94184;-75
2023/04/08 09:23:00;;;;;;;14.27;11.90;;;10.70;99.90;;;;;;6066699;23;94715;-75
2023/04/08 09:25:29;;;;;;;17.00;12.25;;;10.80;99.90;;;;;;6094202;23;92384;-75
2023/04/08 09:27:57;;;;;;;16.80;11.45;;;10.80;99.90;;;;;;6044185;23;93110;-75
2023/04/08 09:30:26;;;;;;;13.45;10.55;;;11.00;99.90;;;;;;6093786;23;93074;-76
2023/04/08 09:32:55;;;;;;;18.38;13.60;;;11.00;99.90;;;;;;6068046;23;92518;-75
2023/04/08 09:35:23;;;;;;;16.52;13.60;;;11.20;99.90;;;;;;6068317;23;92338;-75
2023/04/08 09:37:50;;;;;;;16.73;13.88;;;11.40;99.90;;;;;;6095235;23;93298;-75
2023/04/08 09:40:18;;;;;;;16.42;12.77;;;11.50;99.90;;;;;;6095583;23;92880;-75
2023/04/08 09:42:49;;;;;;;17.77;12.57;;;11.60;99.90;;;;;;6045955;23;92873;-75
2023/04/08 09:45:17;;;;;;;14.85;12.65;;;11.70;99.90;;;;;;6069207;23;92470;-75
2023/04/08 09:48:07;;;;;;;16.25;13.68;;;11.70;99.90;;;;;;6093927;23;95613;-75
2023/04/08 09:50:41;;;;;;;14.85;12.07;;;11.80;99.90;;;;;;6095259;23;95019;-75
2023/04/08 09:53:33;;;;;;;17.58;14.43;;;11.90;99.90;;;;;;6095573;23;92880;-75
2023/04/08 09:56:06;;;;;;;16.90;12.98;;;11.90;99.90;;;;;;6069806;23;92723;-76
2023/04/08 09:58:40;;;;;;;16.73;14.33;;;12.00;99.90;;;;;;6095431;23;93266;-75
2023/04/08 10:01:10;;;;;;;16.50;13.50;;;12.10;99.90;;;;;;6095276;23;95204;-75
2023/04/08 10:03:44;;;;;;;18.48;15.10;;;12.10;99.90;;;;;;6069764;23;92478;-75
2023/04/08 10:06:11;;;;;;;15.88;13.63;;;12.30;99.90;;;;;;6095918;23;91605;-76
2023/04/08 10:08:38;;;;;;;15.63;11.98;;;12.60;99.90;;;;;;6069102;23;95787;-75
2023/04/08 10:11:06;;;;;;;17.35;13.43;;;12.70;99.90;;;;;;6094911;23;93267;-75
2023/04/08 10:13:33;;;;;;;15.90;12.82;;;12.70;99.90;;;;;;6043491;23;94873;-75
2023/04/08 10:16:18;;;;;;;17.58;12.52;;;12.80;99.90;;;;;;6069784;23;93014;-75
2023/04/08 10:18:45;;;;;;;17.92;13.57;;;13.00;99.90;;;;;;6092719;23;93538;-75
2023/04/08 10:21:31;;;;;;;18.35;13.35;;;13.00;99.90;;;;;;6088568;23;92961;-75
2023/04/08 10:24:00;;;;;;;14.82;11.93;;;13.10;99.90;;;;;;6066076;23;93133;-75
2023/04/08 10:26:44;;;;;;;16.55;13.75;;;13.00;99.90;;;;;;6065716;23;92527;-75
2023/04/08 10:29:16;;;;;;;18.23;13.82;;;13.10;99.90;;;;;;6065645;23;92947;-75
2023/04/08 10:31:47;;;;;;;15.70;12.35;;;13.10;99.90;;;;;;6066228;23;92908;-75
2023/04/08 10:34:16;;;;;;;14.25;11.93;;;13.10;99.90;;;;;;6064450;23;92736;-76
2023/04/08 10:36:44;;;;;;;18.02;12.73;;;12.80;99.90;;;;;;6065925;23;92454;-76
2023/04/08 10:39:15;;;;;;;18.98;13.60;;;12.70;99.90;;;;;;6064018;23;95492;-75
2023/04/08 10:41:43;;;;;;;15.55;12.68;;;12.60;99.90;;;;;;6065521;23;95449;-76
2023/04/08 10:44:21;;;;;;;15.60;12.68;;;12.40;99.90;;;;;;6039694;23;92328;-75
2023/04/08 10:46:50;;;;;;;15.18;12.57;;;12.50;99.90;;;;;;6064247;23;92519;-75
2023/04/08 10:49:18;;;;;;;19.98;14.48;;;12.50;99.90;;;;;;6063446;23;99306;-75
2023/04/08 10:51:46;;;;;;;20.67;14.77;;;12.50;99.90;;;;;;6039678;23;95177;-75
2023/04/08 10:54:15;;;;;;;17.20;12.60;;;12.50;99.90;;;;;;6063283;23;103151;-75
2023/04/08 10:56:53;;;;;;;18.52;13.52;;;12.40;99.90;;;;;;6066267;23;91663;-75
2023/04/08 10:59:28;;;;;;;18.13;12.90;;;12.30;99.90;;;;;;6065426;23;93243;-75
2023/04/08 11:01:55;;;;;;;19.50;14.05;;;12.50;99.90;;;;;;6065651;23;93036;-75
2023/04/08 11:04:24;;;;;;;22.02;15.60;;;12.40;99.90;;;;;;6064094;23;94825;-75
2023/04/08 11:06:52;;;;;;;22.17;15.77;;;12.50;99.90;;;;;;6039991;23;92467;-75
2023/04/08 11:09:19;;;;;;;24.30;16.10;;;12.50;99.90;;;;;;6065372;23;93265;-75
2023/04/08 11:11:46;;;;;;;20.58;15.27;;;12.50;99.90;;;;;;6065452;23;93054;-75
2023/04/08 11:14:13;;;;;;;16.15;11.77;;;12.60;99.90;;;;;;6065636;23;92466;-76
2023/04/08 11:16:41;;;;;;;20.90;14.70;;;12.40;99.90;;;;;;6064201;23;92438;-76
2023/04/08 11:19:08;;;;;;;20.70;15.50;;;12.20;99.90;;;;;;6088033;23;92467;-75
2023/04/08 11:21:36;;;;;;;21.50;13.35;;;12.10;99.90;;;;;;6065927;23;93002;-75
2023/04/08 11:24:15;;;;;;;23.38;16.67;;;11.70;99.90;;;;;;6063792;23;99979;-75
2023/04/08 11:26:42;;;;;;;25.33;16.75;;;11.70;99.90;;;;;;6064714;23;92890;-75
2023/04/08 11:29:13;;;;;;;22.33;15.85;;;11.60;99.90;;;;;;6086815;23;95412;-75
2023/04/08 11:31:42;;;;;;;22.52;15.93;;;11.70;99.90;;;;;;6065224;23;95406;-75
2023/04/08 11:34:10;;;;;;;24.95;17.08;;;11.70;99.90;;;;;;6064490;23;92654;-75
2023/04/08 11:36:40;;;;;;;27.55;19.55;;;11.80;99.90;;;;;;6065511;23;92544;-75
2023/04/08 11:39:09;;;;;;;30.40;20.77;;;12.00;99.90;;;;;;6065556;23;93186;-75
2023/04/08 11:41:38;;;;;;;29.27;20.83;;;12.20;99.90;;;;;;6088426;23;92886;-75
2023/04/08 11:44:05;;;;;;;27.13;18.25;;;12.30;99.90;;;;;;6064042;23;92401;-75
2023/04/08 11:46:34;;;;;;;28.92;18.20;;;12.30;99.90;;;;;;6039859;23;91707;-75
2023/04/08 11:49:06;;;;;;;31.13;21.42;;;12.10;99.90;;;;;;6065433;23;93355;-75
2023/04/08 11:51:35;;;;;;;27.95;19.00;;;12.00;99.90;;;;;;6065232;23;92290;-75
2023/04/08 11:54:06;;;;;;;28.15;18.83;;;12.00;99.90;;;;;;6062317;23;94926;-75
2023/04/08 11:56:44;;;;;;;31.42;19.33;;;11.80;99.90;;;;;;6063829;23;92432;-75
2023/04/08 11:59:11;;;;;;;31.90;20.83;;;11.70;99.90;;;;;;6063149;23;95648;-75
2023/04/08 12:01:38;;;;;;;40.20;25.08;;;11.60;99.90;;;;;;6063350;23;95480;-75
2023/04/08 12:04:09;;;;;;;37.63;25.20;;;11.60;99.90;;;;;;6063738;23;94780;-75
2023/04/08 12:06:36;;;;;;;35.25;24.08;;;11.80;99.90;;;;;;6065173;23;92391;-75
2023/04/08 12:09:03;;;;;;;39.22;24.95;;;11.90;99.90;;;;;;6065216;23;93277;-75
2023/04/08 12:11:30;;;;;;;34.10;23.05;;;12.00;99.90;;;;;;6088115;23;95486;-75
2023/04/08 12:13:57;;;;;;;38.00;26.15;;;12.10;99.90;;;;;;6063803;23;92508;-75
2023/04/08 12:16:25;;;;;;;34.97;25.05;;;12.20;99.90;;;;;;6065186;23;92410;-75
2023/04/08 12:18:52;;;;;;;34.63;25.17;;;12.30;99.90;;;;;;6065007;23;98327;-75
2023/04/08 12:21:19;;;;;;;33.47;24.15;;;12.40;99.90;;;;;;6068613;23;95447;-75
2023/04/08 12:23:46;;;;;;;32.78;24.38;;;12.40;99.90;;;;;;6068992;23;92413;-75
2023/04/08 12:26:13;;;;;;;30.70;22.60;;;12.40;99.90;;;;;;6068915;23;92453;-75
2023/04/08 12:28:40;;;;;;;36.22;25.45;;;12.40;99.90;;;;;;6067907;23;96346;-75
2023/04/08 12:31:07;;;;;;;39.67;28.05;;;12.40;99.90;;;;;;6094555;23;93182;-75
2023/04/08 12:33:34;;;;;;;32.08;22.92;;;12.40;99.90;;;;;;6068561;23;92469;-75
2023/04/08 12:36:01;;;;;;;37.88;25.58;;;12.50;99.90;;;;;;6069089;23;91781;-75
2023/04/08 12:38:28;;;;;;;42.63;27.92;;;12.40;99.90;;;;;;6043628;23;96015;-75
2023/04/08 12:40:55;;;;;;;40.17;26.95;;;12.50;99.90;;;;;;6068714;23;93175;-75